createdAt,value
2022-08-04T00:02:12.495Z,23.50
2022-08-04T00:04:54.008Z,23.40
2022-08-04T00:07:48.451Z,23.40
2022-08-04T00:10:18.132Z,23.40
2022-08-04T00:12:50.150Z,23.40
2022-08-04T00:15:18.204Z,23.30
2022-08-04T00:17:48.508Z,23.30
2022-08-04T00:20:19.829Z,23.30
2022-08-04T00:22:48.669Z,23.30
2022-08-04T00:25:15.986Z,23.20
2022-08-04T00:27:44.139Z,23.20
2022-08-04T00:30:11.243Z,23.20
2022-08-04T00:32:41.252Z,23.10
2022-08-04T00:35:14.902Z,23.10
2022-08-04T00:37:43.897Z,23.00
2022-08-04T00:40:25.002Z,23.00
2022-08-04T00:43:16.506Z,22.90
2022-08-04T00:46:16.513Z,22.90
2022-08-04T00:49:03.061Z,22.90
2022-08-04T00:51:42.303Z,22.80
2022-08-04T00:54:41.280Z,22.80
2022-08-04T00:57:36.238Z,22.80
2022-08-04T01:00:09.922Z,22.70
2022-08-04T01:02:49.941Z,22.70
2022-08-04T01:05:29.078Z,22.60
2022-08-04T01:08:13.365Z,22.60
2022-08-04T01:11:07.794Z,22.50
2022-08-04T01:13:50.001Z,22.40
2022-08-04T01:16:18.254Z,22.40
2022-08-04T01:19:03.602Z,22.40
2022-08-04T01:21:30.693Z,22.30
2022-08-04T01:24:16.444Z,22.20
2022-08-04T01:26:57.673Z,22.10
2022-08-04T01:29:44.021Z,22.10
2022-08-04T01:32:21.008Z,22.00
2022-08-04T01:35:01.082Z,21.90
2022-08-04T01:38:18.345Z,21.90
2022-08-04T01:40:53.989Z,21.90
2022-08-04T01:43:21.734Z,21.90
2022-08-04T01:45:52.235Z,21.90
2022-08-04T01:48:25.204Z,21.80
2022-08-04T01:50:59.115Z,21.80
2022-08-04T01:53:32.849Z,21.80
2022-08-04T01:56:02.202Z,21.80
2022-08-04T01:58:33.659Z,21.80
2022-08-04T02:01:08.469Z,21.80
2022-08-04T02:04:19.909Z,21.80
2022-08-04T02:06:38.207Z,21.80
2022-08-04T02:09:29.966Z,21.80
2022-08-04T02:12:28.197Z,21.80
2022-08-04T02:15:24.986Z,21.70
2022-08-04T02:18:04.922Z,21.70
2022-08-04T02:20:44.817Z,21.70
2022-08-04T02:23:24.605Z,21.70
2022-08-04T02:26:01.295Z,21.60
2022-08-04T02:28:46.845Z,21.60
2022-08-04T02:31:31.515Z,21.60
2022-08-04T02:34:32.003Z,21.60
2022-08-04T02:37:00.342Z,21.60
2022-08-04T02:39:47.957Z,21.60
2022-08-04T02:42:17.352Z,21.50
2022-08-04T02:44:50.443Z,21.50
2022-08-04T02:47:24.664Z,21.50
2022-08-04T02:50:14.428Z,21.50
2022-08-04T02:52:58.333Z,21.40
2022-08-04T02:55:27.394Z,21.40
2022-08-04T02:57:56.453Z,21.40
2022-08-04T03:00:23.906Z,21.40
2022-08-04T03:03:23.065Z,21.40
2022-08-04T03:06:08.788Z,21.30
2022-08-04T03:09:11.328Z,21.20
2022-08-04T03:12:07.689Z,21.10
2022-08-04T03:14:40.310Z,21.00
2022-08-04T03:17:27.497Z,21.00
2022-08-04T03:20:09.540Z,20.90
2022-08-04T03:23:14.736Z,20.90
2022-08-04T03:26:16.084Z,20.90
2022-08-04T03:28:48.657Z,20.90
2022-08-04T03:31:49.317Z,20.90
2022-08-04T03:34:30.026Z,20.80
2022-08-04T03:37:18.394Z,20.70
2022-08-04T03:40:09.005Z,20.70
2022-08-04T03:42:37.829Z,20.60
2022-08-04T03:45:23.078Z,20.60
2022-08-04T03:48:12.322Z,20.50
2022-08-04T03:51:35.914Z,20.40
2022-08-04T03:54:28.010Z,20.40
2022-08-04T03:57:13.605Z,20.40
2022-08-04T03:59:55.289Z,20.40
2022-08-04T04:02:51.932Z,20.40
2022-08-04T04:06:02.216Z,20.40
2022-08-04T04:08:49.653Z,20.40
2022-08-04T04:11:54.169Z,20.40
2022-08-04T04:14:49.162Z,20.30
2022-08-04T04:17:43.393Z,20.40
2022-08-04T04:20:29.419Z,20.40
2022-08-04T04:23:24.613Z,20.30
2022-08-04T04:26:20.679Z,20.40
2022-08-04T04:29:20.011Z,20.40
2022-08-04T04:31:55.559Z,20.40
2022-08-04T04:34:59.332Z,20.40
2022-08-04T04:37:48.901Z,20.40
2022-08-04T04:40:45.397Z,20.40
2022-08-04T04:43:50.787Z,20.40
2022-08-04T04:46:35.162Z,20.40
2022-08-04T04:49:30.108Z,20.40
2022-08-04T04:52:08.553Z,20.40
2022-08-04T04:54:53.214Z,20.40
2022-08-04T04:57:53.242Z,20.40
2022-08-04T05:00:13.997Z,20.30
2022-08-04T05:03:27.525Z,20.40
2022-08-04T05:06:15.188Z,20.40
2022-08-04T05:09:07.160Z,20.30
2022-08-04T05:11:52.458Z,20.30
2022-08-04T05:14:41.106Z,20.40
2022-08-04T05:17:33.938Z,20.40
2022-08-04T05:20:23.784Z,20.40
2022-08-04T05:23:11.275Z,20.40
2022-08-04T05:25:59.339Z,20.40
2022-08-04T05:28:29.806Z,20.40
2022-08-04T05:31:10.606Z,20.40
2022-08-04T05:33:48.845Z,20.40
2022-08-04T05:36:39.953Z,20.40
2022-08-04T05:39:13.356Z,20.40
2022-08-04T05:41:44.740Z,20.40
2022-08-04T05:44:19.239Z,20.40
2022-08-04T05:46:53.740Z,20.40
2022-08-04T05:49:23.735Z,20.40
2022-08-04T05:51:52.709Z,20.40
2022-08-04T05:54:21.765Z,20.40
2022-08-04T05:56:51.084Z,20.40
2022-08-04T05:59:19.984Z,20.40
2022-08-04T06:01:55.171Z,20.50
2022-08-04T06:04:37.398Z,20.50
2022-08-04T06:07:05.094Z,20.60
2022-08-04T06:09:32.585Z,20.60
2022-08-04T06:12:04.882Z,20.60
2022-08-04T06:14:39.476Z,20.70
2022-08-04T06:18:32.624Z,20.60
2022-08-04T06:20:19.866Z,20.70
2022-08-04T06:22:49.786Z,20.70
2022-08-04T06:25:21.005Z,20.60
2022-08-04T06:27:49.875Z,20.70
2022-08-04T06:30:19.345Z,20.60
2022-08-04T06:32:48.719Z,20.70
2022-08-04T06:35:20.860Z,20.60
2022-08-04T06:37:48.793Z,20.70
2022-08-04T06:40:30.486Z,20.70
2022-08-04T06:43:00.762Z,20.70
2022-08-04T06:45:28.618Z,20.70
2022-08-04T06:48:08.628Z,20.60
2022-08-04T06:51:32.149Z,20.60
2022-08-04T06:53:41.338Z,20.70
2022-08-04T06:56:09.307Z,20.60
2022-08-04T06:58:37.871Z,20.60
2022-08-04T07:01:05.967Z,20.70
2022-08-04T07:03:33.369Z,20.60
2022-08-04T07:06:06.291Z,20.60
2022-08-04T07:08:41.905Z,20.60
2022-08-04T07:11:10.181Z,20.70
2022-08-04T07:13:39.785Z,20.70
2022-08-04T07:16:13.455Z,20.60
2022-08-04T07:18:40.458Z,20.60
2022-08-04T07:21:07.939Z,20.60
2022-08-04T07:23:35.118Z,20.60
2022-08-04T07:26:11.761Z,20.60
2022-08-04T07:28:41.987Z,20.60
2022-08-04T07:31:16.551Z,20.60
2022-08-04T07:34:11.615Z,20.70
2022-08-04T07:36:54.983Z,20.60
2022-08-04T07:39:27.645Z,20.70
2022-08-04T07:41:58.267Z,20.70
2022-08-04T07:44:25.595Z,20.70
2022-08-04T07:46:53.006Z,20.70
2022-08-04T07:49:55.156Z,20.80
2022-08-04T07:52:08.839Z,20.80
2022-08-04T07:54:36.279Z,20.80
2022-08-04T07:57:03.714Z,20.80
2022-08-04T07:59:31.345Z,20.80
2022-08-04T08:02:02.217Z,20.80
2022-08-04T08:04:30.400Z,20.80
2022-08-04T08:06:58.720Z,20.80
2022-08-04T08:09:26.027Z,20.90
2022-08-04T08:12:36.225Z,20.80
2022-08-04T08:14:44.117Z,20.90
2022-08-04T08:17:11.266Z,20.90
2022-08-04T08:19:38.535Z,20.90
2022-08-04T08:22:05.754Z,20.90
2022-08-04T08:24:36.477Z,21.00
2022-08-04T08:27:04.961Z,21.10
2022-08-04T08:29:34.742Z,21.10
2022-08-04T08:32:08.253Z,21.20
2022-08-04T08:34:36.181Z,21.30
2022-08-04T08:37:34.842Z,21.40
2022-08-04T08:40:17.686Z,21.40
2022-08-04T08:44:03.933Z,21.40
2022-08-04T08:46:13.779Z,21.50
2022-08-04T08:50:00.457Z,21.50
2022-08-04T08:52:55.029Z,21.60
2022-08-04T08:55:31.378Z,21.70
2022-08-04T08:58:01.134Z,21.80
2022-08-04T09:00:42.784Z,21.90
2022-08-04T09:03:28.295Z,21.90
2022-08-04T09:06:22.712Z,21.90
2022-08-04T09:09:03.231Z,21.90
2022-08-04T09:11:57.390Z,22.00
2022-08-04T09:14:26.224Z,22.10
2022-08-04T09:17:00.254Z,22.20
2022-08-04T09:19:38.945Z,22.40
2022-08-04T09:22:12.758Z,22.40
2022-08-04T09:24:48.751Z,22.50
2022-08-04T09:27:55.705Z,22.60
2022-08-04T09:30:47.212Z,22.80
2022-08-04T09:33:44.774Z,22.90
2022-08-04T09:36:25.759Z,23.10
2022-08-04T09:39:27.657Z,23.30
2022-08-04T09:42:01.779Z,23.60
2022-08-04T09:44:50.771Z,23.80
2022-08-04T09:47:54.518Z,23.90
2022-08-04T09:50:37.643Z,24.10
2022-08-04T09:53:43.577Z,24.30
2022-08-04T09:56:39.803Z,24.40
2022-08-04T09:59:22.297Z,24.50
2022-08-04T10:01:59.726Z,24.60
2022-08-04T10:04:31.171Z,24.70
2022-08-04T10:07:20.030Z,24.90
2022-08-04T10:10:23.874Z,25.10
2022-08-04T10:13:09.285Z,25.20
2022-08-04T10:15:49.563Z,25.30
2022-08-04T10:18:22.199Z,25.40
2022-08-04T10:21:06.812Z,25.50
2022-08-04T10:23:56.378Z,25.70
2022-08-04T10:26:42.586Z,25.90
2022-08-04T10:29:18.393Z,26.00
2022-08-04T10:31:55.922Z,26.00
2022-08-04T10:34:27.772Z,26.10
2022-08-04T10:37:01.509Z,26.20
2022-08-04T10:40:06.938Z,26.30
2022-08-04T10:42:38.802Z,26.40
2022-08-04T10:45:19.223Z,26.60
2022-08-04T10:48:06.043Z,26.70
2022-08-04T10:50:40.368Z,26.80
2022-08-04T10:53:17.398Z,26.80
2022-08-04T10:56:06.696Z,26.90
2022-08-04T10:58:48.082Z,27.10
2022-08-04T11:02:03.041Z,27.20
2022-08-04T11:04:48.819Z,27.30
2022-08-04T11:07:17.756Z,27.30
2022-08-04T11:09:45.808Z,27.40
2022-08-04T11:12:26.819Z,27.50
2022-08-04T11:14:59.840Z,27.60
2022-08-04T11:17:33.704Z,27.70
2022-08-04T11:20:38.368Z,27.80
2022-08-04T11:23:13.522Z,28.00
2022-08-04T11:26:18.573Z,28.10
2022-08-04T11:29:04.036Z,28.20
2022-08-04T11:31:35.462Z,28.20
2022-08-04T11:34:20.897Z,28.30
2022-08-04T11:37:00.581Z,28.40
2022-08-04T11:39:43.728Z,28.40
2022-08-04T11:42:10.749Z,28.40
2022-08-04T11:45:08.091Z,28.40
2022-08-04T11:47:48.385Z,28.40
2022-08-04T11:50:29.291Z,28.40
2022-08-04T11:52:58.246Z,28.50
2022-08-04T11:55:28.314Z,28.60
2022-08-04T11:57:55.909Z,28.60
2022-08-04T12:00:25.166Z,28.70
2022-08-04T12:03:29.596Z,28.80
2022-08-04T12:06:00.932Z,28.90
2022-08-04T12:08:30.685Z,29.10
2022-08-04T12:11:28.211Z,29.20
2022-08-04T12:14:13.039Z,29.30
2022-08-04T12:16:52.051Z,29.30
2022-08-04T12:19:31.179Z,29.30
2022-08-04T12:22:20.390Z,29.40
2022-08-04T12:24:59.900Z,29.40
2022-08-04T12:27:52.014Z,29.40
2022-08-04T12:30:59.925Z,29.40
2022-08-04T12:33:23.907Z,29.30
2022-08-04T12:36:21.289Z,29.30
2022-08-04T12:39:14.747Z,29.10
2022-08-04T12:42:04.811Z,28.90
2022-08-04T12:44:37.793Z,28.70
2022-08-04T12:47:26.835Z,28.60
2022-08-04T12:50:02.739Z,28.50
2022-08-04T12:53:01.746Z,28.40
2022-08-04T12:55:33.541Z,28.40
2022-08-04T12:58:04.006Z,28.40
2022-08-04T13:00:43.760Z,28.40
2022-08-04T13:03:14.299Z,28.40
2022-08-04T13:05:42.902Z,28.40
2022-08-04T13:08:15.493Z,28.40
2022-08-04T13:10:46.922Z,28.40
2022-08-04T13:13:24.493Z,28.40
2022-08-04T13:15:57.595Z,28.50
2022-08-04T13:18:30.439Z,28.50
2022-08-04T13:21:22.880Z,28.60
2022-08-04T13:24:22.686Z,28.80
2022-08-04T13:27:03.503Z,28.90
2022-08-04T13:29:59.005Z,29.00
2022-08-04T13:32:26.894Z,29.10
2022-08-04T13:34:55.789Z,29.20
2022-08-04T13:37:30.631Z,29.30
2022-08-04T13:39:59.606Z,29.30
2022-08-04T13:42:27.247Z,29.40
2022-08-04T13:44:58.307Z,29.50
2022-08-04T13:47:38.309Z,29.60
2022-08-04T13:50:30.258Z,29.80
2022-08-04T13:53:00.128Z,29.90
2022-08-04T13:55:31.169Z,30.00
2022-08-04T13:58:21.535Z,30.00
2022-08-04T14:01:00.450Z,30.10
2022-08-04T14:03:53.850Z,30.20
2022-08-04T14:06:25.408Z,30.20
2022-08-04T14:08:55.178Z,30.30
2022-08-04T14:12:06.143Z,30.30
2022-08-04T14:14:31.953Z,30.40
2022-08-04T14:17:06.260Z,30.60
2022-08-04T14:19:55.044Z,30.60
2022-08-04T14:22:34.763Z,30.70
2022-08-04T14:25:17.912Z,30.70
2022-08-04T14:27:49.564Z,30.70
2022-08-04T14:30:35.657Z,30.70
2022-08-04T14:34:02.006Z,30.70
2022-08-04T14:36:01.655Z,30.70
2022-08-04T14:38:51.892Z,30.60
2022-08-04T14:41:26.804Z,30.60
2022-08-04T14:44:03.041Z,30.70
2022-08-04T14:46:36.366Z,30.60
2022-08-04T14:49:10.525Z,30.60
2022-08-04T14:51:55.053Z,30.60
2022-08-04T14:54:30.546Z,30.70
2022-08-04T14:57:08.018Z,30.60
2022-08-04T15:00:00.499Z,30.60
2022-08-04T15:02:29.535Z,30.50
2022-08-04T15:04:57.425Z,30.50
2022-08-04T15:07:24.837Z,30.40
2022-08-04T15:09:52.268Z,30.30
2022-08-04T15:12:19.441Z,30.30
2022-08-04T15:14:46.357Z,30.30
2022-08-04T15:17:29.438Z,30.20
2022-08-04T15:19:57.346Z,30.10
2022-08-04T15:22:24.563Z,30.00
2022-08-04T15:24:52.217Z,30.00
2022-08-04T15:27:26.967Z,30.00
2022-08-04T15:29:59.524Z,30.00
2022-08-04T15:32:34.238Z,30.00
2022-08-04T15:35:06.846Z,29.90
2022-08-04T15:38:08.522Z,29.90
2022-08-04T15:40:51.009Z,29.90
2022-08-04T15:43:39.580Z,29.90
2022-08-04T15:46:44.315Z,29.90
2022-08-04T15:48:53.657Z,29.80
2022-08-04T15:51:32.037Z,29.90
2022-08-04T15:54:02.502Z,29.90
2022-08-04T15:56:31.125Z,29.90
2022-08-04T15:58:58.817Z,29.80
2022-08-04T16:01:27.752Z,29.80
2022-08-04T16:04:00.028Z,29.80
2022-08-04T16:06:29.157Z,29.80
2022-08-04T16:09:01.912Z,29.80
2022-08-04T16:11:40.060Z,29.80
2022-08-04T16:14:11.038Z,29.70
2022-08-04T16:16:47.885Z,29.60
2022-08-04T16:19:41.851Z,29.50
2022-08-04T16:22:31.379Z,29.40
2022-08-04T16:24:58.446Z,29.30
2022-08-04T16:27:45.086Z,29.20
2022-08-04T16:30:15.053Z,29.10
2022-08-04T16:32:47.460Z,29.00
2022-08-04T16:35:28.662Z,28.90
2022-08-04T16:38:13.322Z,28.80
2022-08-04T16:40:44.357Z,28.60
2022-08-04T16:43:17.152Z,28.40
2022-08-04T16:46:01.144Z,28.40
2022-08-04T16:48:33.568Z,28.20
2022-08-04T16:51:05.918Z,27.90
2022-08-04T16:53:53.106Z,27.80
2022-08-04T16:56:30.327Z,27.70
2022-08-04T16:59:07.338Z,27.60
2022-08-04T17:01:35.161Z,27.40
2022-08-04T17:04:07.066Z,27.30
2022-08-04T17:06:40.837Z,27.30
2022-08-04T17:09:17.228Z,27.10
2022-08-04T17:11:46.441Z,27.00
2022-08-04T17:14:13.930Z,26.80
2022-08-04T17:16:42.889Z,26.80
2022-08-04T17:19:24.218Z,26.60
2022-08-04T17:22:00.409Z,26.50
2022-08-04T17:24:30.397Z,26.40
2022-08-04T17:26:58.972Z,26.30
2022-08-04T17:29:43.192Z,26.20
2022-08-04T17:32:16.872Z,26.00
2022-08-04T17:34:54.306Z,25.90
2022-08-04T17:37:39.102Z,25.90
2022-08-04T17:40:14.273Z,25.80
2022-08-04T17:42:45.699Z,25.80
2022-08-04T17:45:50.161Z,25.70
2022-08-04T17:48:24.124Z,25.60
2022-08-04T17:50:52.289Z,25.50
2022-08-04T17:54:01.328Z,25.50
2022-08-04T17:56:59.463Z,25.50
2022-08-04T18:02:32.346Z,25.40
2022-08-04T18:05:07.810Z,25.30
2022-08-04T18:08:39.534Z,25.30
2022-08-04T18:10:54.184Z,25.20
2022-08-04T18:13:27.234Z,25.10
2022-08-04T18:16:02.386Z,25.10
2022-08-04T18:18:30.023Z,25.10
2022-08-04T18:20:59.800Z,25.00
2022-08-04T18:23:31.680Z,24.90
2022-08-04T18:26:01.839Z,24.90
2022-08-04T18:28:31.314Z,24.90
2022-08-04T18:31:00.785Z,24.80
2022-08-04T18:33:40.841Z,24.70
2022-08-04T18:36:34.100Z,24.60
2022-08-04T18:39:13.305Z,24.60
2022-08-04T18:42:01.624Z,24.50
2022-08-04T18:44:31.708Z,24.40
2022-08-04T18:47:19.358Z,24.30
2022-08-04T18:50:59.987Z,24.30
2022-08-04T18:52:33.848Z,24.20
2022-08-04T18:55:01.759Z,24.20
2022-08-04T18:57:59.060Z,24.10
2022-08-04T19:00:20.173Z,24.00
2022-08-04T19:02:54.941Z,24.00
2022-08-04T19:05:24.298Z,24.00
2022-08-04T19:08:33.494Z,23.90
2022-08-04T19:10:54.202Z,23.90
2022-08-04T19:13:27.569Z,23.80
2022-08-04T19:15:54.776Z,23.80
2022-08-04T19:18:26.440Z,23.80
2022-08-04T19:20:55.395Z,23.70
2022-08-04T19:24:28.760Z,23.60
2022-08-04T19:26:20.706Z,23.60
2022-08-04T19:28:55.353Z,23.50
2022-08-04T19:31:28.420Z,23.40
2022-08-04T19:36:49.092Z,23.30
2022-08-04T19:39:16.399Z,23.20
2022-08-04T19:42:05.661Z,23.10
2022-08-04T19:44:30.609Z,23.00
2022-08-04T19:47:00.815Z,23.00
2022-08-04T19:50:04.408Z,22.90
2022-08-04T19:52:33.212Z,22.80
2022-08-04T19:55:09.840Z,22.80
2022-08-04T19:57:46.564Z,22.80
2022-08-04T20:00:33.002Z,22.70
2022-08-04T20:03:00.644Z,22.60
2022-08-04T20:05:52.531Z,22.60
2022-08-04T20:08:15.720Z,22.60
2022-08-04T20:10:51.636Z,22.50
2022-08-04T20:13:20.846Z,22.50
2022-08-04T20:15:55.555Z,22.50
2022-08-04T20:18:36.714Z,22.40
2022-08-04T20:21:19.094Z,22.40
2022-08-04T20:23:52.409Z,22.40
2022-08-04T20:26:19.798Z,22.40
2022-08-04T20:28:51.992Z,22.40
2022-08-04T20:31:20.585Z,22.30
2022-08-04T20:33:53.485Z,22.30
2022-08-04T20:36:20.826Z,22.20
2022-08-04T20:38:52.624Z,22.20
2022-08-04T20:41:21.727Z,22.20
2022-08-04T20:43:50.106Z,22.10
2022-08-04T20:46:29.133Z,22.00
2022-08-04T20:48:57.558Z,22.00
2022-08-04T20:51:32.216Z,21.90
2022-08-04T20:54:02.143Z,21.90
2022-08-04T20:56:30.765Z,21.90
2022-08-04T20:59:00.060Z,21.80
2022-08-04T21:01:29.820Z,21.80
2022-08-04T21:04:27.544Z,21.80
2022-08-04T21:07:07.423Z,21.80
2022-08-04T21:09:38.131Z,21.70
2022-08-04T21:15:13.361Z,21.60
2022-08-04T21:17:57.011Z,21.60
2022-08-04T21:20:27.663Z,21.60
2022-08-04T21:22:55.555Z,21.60
2022-08-04T21:25:26.774Z,21.50
2022-08-04T21:27:53.747Z,21.50
2022-08-04T21:30:25.445Z,21.50
2022-08-04T21:32:55.377Z,21.50
2022-08-04T21:35:37.034Z,21.50
2022-08-04T21:38:16.624Z,21.40
2022-08-04T21:40:55.000Z,21.40
2022-08-04T21:43:27.364Z,21.40
2022-08-04T21:45:56.973Z,21.30
2022-08-04T21:48:31.863Z,21.30
2022-08-04T21:51:59.312Z,21.20
2022-08-04T21:54:08.757Z,21.20
2022-08-04T21:56:36.023Z,21.20
2022-08-04T21:59:11.009Z,21.20
2022-08-04T22:01:51.630Z,21.10
2022-08-04T22:04:19.929Z,21.10
2022-08-04T22:06:51.662Z,21.10
2022-08-04T22:09:21.910Z,21.00
2022-08-04T22:11:51.114Z,21.00
2022-08-04T22:14:27.632Z,20.90
2022-08-04T22:17:02.810Z,20.90
2022-08-04T22:19:49.716Z,20.90
2022-08-04T22:22:25.883Z,20.90
2022-08-04T22:25:00.177Z,20.80
2022-08-04T22:27:47.362Z,20.80
2022-08-04T22:30:17.598Z,20.80
2022-08-04T22:32:47.975Z,20.80
2022-08-04T22:35:43.408Z,20.70
2022-08-04T22:38:06.637Z,20.70
2022-08-04T22:40:38.510Z,20.60
2022-08-04T22:43:31.424Z,20.60
2022-08-04T22:45:52.650Z,20.60
2022-08-04T22:48:20.401Z,20.60
2022-08-04T22:50:47.627Z,20.60
2022-08-04T22:53:17.921Z,20.50
2022-08-04T22:56:06.384Z,20.50
2022-08-04T22:58:32.534Z,20.40
2022-08-04T23:00:59.728Z,20.40
2022-08-04T23:03:37.302Z,20.40
2022-08-04T23:06:10.680Z,20.40
2022-08-04T23:08:43.086Z,20.30
2022-08-04T23:11:14.707Z,20.20
2022-08-04T23:13:41.825Z,20.20
2022-08-04T23:16:10.418Z,20.20
2022-08-04T23:18:40.062Z,20.10
2022-08-04T23:21:10.449Z,20.10
2022-08-04T23:23:45.406Z,20.10
2022-08-04T23:26:15.858Z,20.10
2022-08-04T23:28:46.037Z,20.10
2022-08-04T23:31:14.746Z,20.10
2022-08-04T23:33:51.388Z,20.10
2022-08-04T23:36:30.108Z,20.10
2022-08-04T23:39:04.001Z,20.10
2022-08-04T23:41:53.987Z,20.20
2022-08-04T23:44:25.901Z,20.20
2022-08-04T23:47:02.022Z,20.30
2022-08-04T23:49:43.905Z,20.30
2022-08-04T23:52:23.271Z,20.20
2022-08-04T23:55:01.070Z,20.20
2022-08-04T23:58:05.233Z,20.20
